createdAt,value
2022-10-30T00:01:34.259Z,22.20
2022-10-30T00:04:00.652Z,27.00
2022-10-30T00:06:27.049Z,21.98
2022-10-30T00:08:53.577Z,25.83
2022-10-30T00:11:20.004Z,22.05
2022-10-30T00:13:46.393Z,28.77
2022-10-30T00:16:12.788Z,21.08
2022-10-30T00:18:39.826Z,27.17
2022-10-30T00:21:12.025Z,34.88
2022-10-30T00:23:39.284Z,31.73
2022-10-30T00:26:06.963Z,29.33
2022-10-30T00:28:33.687Z,24.98
2022-10-30T00:31:01.485Z,33.90
2022-10-30T00:33:29.126Z,35.13
2022-10-30T00:35:55.598Z,29.90
2022-10-30T00:38:22.186Z,27.58
2022-10-30T00:40:49.365Z,25.05
2022-10-30T00:43:28.474Z,24.67
2022-10-30T00:45:56.467Z,29.15
2022-10-30T00:48:25.386Z,21.60
2022-10-30T00:50:53.375Z,25.60
2022-10-30T00:53:21.629Z,21.08
2022-10-30T00:55:53.972Z,27.55
2022-10-30T00:58:33.794Z,20.98
2022-10-30T01:01:04.189Z,23.08
2022-10-30T01:03:32.012Z,22.60
2022-10-30T01:06:02.838Z,25.90
2022-10-30T01:08:29.862Z,25.27
2022-10-30T01:10:59.682Z,23.60
2022-10-30T01:13:27.981Z,24.08
2022-10-30T01:16:21.799Z,24.85
2022-10-30T01:19:26.523Z,19.23
2022-10-30T01:22:11.095Z,20.67
2022-10-30T01:25:04.343Z,19.90
2022-10-30T01:27:58.544Z,26.38
2022-10-30T01:30:49.818Z,21.48
2022-10-30T01:33:45.085Z,21.33
2022-10-30T01:37:04.303Z,21.55
2022-10-30T01:39:37.147Z,31.15
2022-10-30T01:42:41.237Z,32.00
2022-10-30T01:45:08.208Z,26.55
2022-10-30T01:47:53.024Z,21.00
2022-10-30T01:50:37.481Z,33.88
2022-10-30T01:53:14.618Z,34.10
2022-10-30T01:55:47.237Z,35.65
2022-10-30T01:58:27.034Z,36.63
2022-10-30T02:00:58.821Z,36.03
2022-10-30T02:03:26.524Z,35.15
2022-10-30T02:05:54.006Z,41.85
2022-10-30T02:08:22.972Z,45.05
2022-10-30T02:10:52.811Z,46.47
2022-10-30T02:13:31.391Z,33.30
2022-10-30T02:15:59.094Z,43.58
2022-10-30T02:18:25.662Z,34.60
2022-10-30T02:20:53.108Z,31.83
2022-10-30T02:23:22.249Z,45.83
2022-10-30T02:25:49.936Z,38.38
2022-10-30T02:28:16.418Z,50.53
2022-10-30T02:30:45.768Z,46.70
2022-10-30T02:33:12.272Z,43.85
2022-10-30T02:35:38.765Z,44.67
2022-10-30T02:38:05.232Z,38.67
2022-10-30T02:40:31.864Z,39.75
2022-10-30T02:42:58.267Z,35.38
2022-10-30T02:45:24.823Z,34.53
2022-10-30T02:47:51.330Z,37.45
2022-10-30T02:50:18.273Z,39.20
2022-10-30T02:52:44.741Z,31.73
2022-10-30T02:55:11.931Z,28.45
2022-10-30T02:57:39.002Z,31.05
2022-10-30T03:00:06.617Z,33.05
2022-10-30T03:02:33.398Z,41.15
2022-10-30T03:05:00.222Z,27.95
2022-10-30T03:07:26.713Z,27.08
2022-10-30T03:09:54.390Z,25.75
2022-10-30T03:12:21.966Z,24.88
2022-10-30T03:14:48.643Z,18.85
2022-10-30T03:17:15.060Z,18.90
2022-10-30T03:19:41.731Z,29.48
2022-10-30T03:22:08.844Z,18.58
2022-10-30T03:24:38.169Z,18.88
2022-10-30T03:27:05.268Z,26.00
2022-10-30T03:29:31.640Z,22.55
2022-10-30T03:31:58.078Z,24.45
2022-10-30T03:34:29.435Z,25.38
2022-10-30T03:36:57.666Z,21.23
2022-10-30T03:39:24.166Z,22.30
2022-10-30T03:41:50.715Z,19.77
2022-10-30T03:44:17.400Z,24.20
2022-10-30T03:46:43.809Z,21.77
2022-10-30T03:49:21.503Z,24.23
2022-10-30T03:51:48.003Z,25.85
2022-10-30T03:54:14.422Z,16.15
2022-10-30T03:56:40.865Z,18.63
2022-10-30T03:59:12.575Z,19.42
2022-10-30T04:01:40.787Z,19.33
2022-10-30T04:04:07.318Z,23.48
2022-10-30T04:06:33.821Z,22.30
2022-10-30T04:09:01.247Z,17.17
2022-10-30T04:11:33.914Z,16.67
2022-10-30T04:14:00.345Z,19.60
2022-10-30T04:16:26.804Z,16.80
2022-10-30T04:18:53.507Z,16.73
2022-10-30T04:21:19.983Z,18.88
2022-10-30T04:23:49.035Z,23.60
2022-10-30T04:26:16.572Z,27.85
2022-10-30T04:28:47.202Z,12.82
2022-10-30T04:31:13.613Z,17.58
2022-10-30T04:33:40.278Z,20.85
2022-10-30T04:36:07.284Z,23.98
2022-10-30T04:38:33.711Z,20.13
2022-10-30T04:41:01.174Z,19.17
2022-10-30T04:46:08.812Z,24.42
2022-10-30T04:48:37.107Z,25.77
2022-10-30T04:51:04.539Z,20.40
2022-10-30T04:53:31.026Z,21.50
2022-10-30T04:56:06.079Z,25.95
2022-10-30T04:58:32.505Z,24.63
2022-10-30T05:01:05.140Z,23.35
2022-10-30T05:03:33.468Z,24.23
2022-10-30T05:06:15.851Z,30.00
2022-10-30T05:08:42.264Z,22.20
2022-10-30T05:11:19.118Z,27.73
2022-10-30T05:13:46.537Z,22.52
2022-10-30T05:16:13.046Z,22.30
2022-10-30T05:18:39.499Z,19.38
2022-10-30T05:21:06.079Z,22.00
2022-10-30T05:23:32.574Z,22.42
2022-10-30T05:26:00.968Z,39.22
2022-10-30T05:28:27.766Z,28.10
2022-10-30T05:30:56.951Z,28.27
2022-10-30T05:33:41.596Z,37.97
2022-10-30T05:36:08.596Z,25.00
2022-10-30T05:38:35.164Z,21.38
2022-10-30T05:41:02.402Z,42.35
2022-10-30T05:43:28.882Z,30.48
2022-10-30T05:45:55.523Z,24.77
2022-10-30T05:48:22.052Z,15.25
2022-10-30T05:50:48.602Z,30.00
2022-10-30T05:53:24.762Z,19.23
2022-10-30T05:55:57.154Z,22.60
2022-10-30T05:58:24.933Z,23.83
2022-10-30T06:00:54.001Z,41.33
2022-10-30T06:03:33.826Z,45.63
2022-10-30T06:06:00.904Z,24.45
2022-10-30T06:08:27.405Z,21.83
2022-10-30T06:10:57.715Z,20.20
2022-10-30T06:13:34.378Z,23.48
2022-10-30T06:16:06.469Z,64.97
2022-10-30T06:18:56.168Z,23.23
2022-10-30T06:21:24.710Z,35.17
2022-10-30T06:24:04.706Z,36.38
2022-10-30T06:26:42.780Z,66.10
2022-10-30T06:29:13.021Z,20.15
2022-10-30T06:31:40.463Z,24.95
2022-10-30T06:34:06.864Z,27.45
2022-10-30T06:36:34.989Z,10.18
2022-10-30T06:39:01.613Z,13.80
2022-10-30T06:41:36.330Z,13.73
2022-10-30T06:44:26.067Z,8.65
2022-10-30T06:46:54.189Z,11.43
2022-10-30T06:49:20.709Z,21.17
2022-10-30T06:51:49.094Z,21.65
2022-10-30T06:54:15.635Z,12.73
2022-10-30T06:57:02.085Z,10.23
2022-10-30T06:59:41.205Z,14.85
2022-10-30T07:02:21.952Z,9.00
2022-10-30T07:04:52.893Z,13.13
2022-10-30T07:07:19.393Z,13.10
2022-10-30T07:09:48.733Z,12.40
2022-10-30T07:12:22.711Z,9.35
2022-10-30T07:15:10.728Z,12.88
2022-10-30T07:18:09.134Z,16.20
2022-10-30T07:20:36.940Z,45.22
2022-10-30T07:23:05.218Z,29.17
2022-10-30T07:25:32.189Z,26.67
2022-10-30T07:28:15.666Z,21.45
2022-10-30T07:30:48.648Z,13.13
2022-10-30T07:33:35.016Z,10.65
2022-10-30T07:36:14.964Z,12.18
2022-10-30T07:38:48.382Z,14.05
2022-10-30T07:41:27.216Z,21.10
2022-10-30T07:44:31.678Z,11.48
2022-10-30T07:47:12.834Z,16.52
2022-10-30T07:49:54.909Z,15.05
2022-10-30T07:52:21.293Z,16.33
2022-10-30T07:54:48.969Z,37.40
2022-10-30T07:57:44.693Z,28.42
2022-10-30T08:00:29.681Z,24.10
2022-10-30T08:03:06.237Z,32.08
2022-10-30T08:05:45.084Z,25.92
2022-10-30T08:08:14.113Z,35.88
2022-10-30T08:10:40.702Z,35.45
2022-10-30T08:13:07.656Z,16.83
2022-10-30T08:15:34.207Z,32.85
2022-10-30T08:18:01.722Z,24.55
2022-10-30T08:20:28.350Z,21.65
2022-10-30T08:22:57.727Z,22.50
2022-10-30T08:25:30.067Z,19.90
2022-10-30T08:28:03.317Z,13.20
2022-10-30T08:30:36.394Z,28.17
2022-10-30T08:33:06.265Z,24.95
2022-10-30T08:35:53.628Z,31.65
2022-10-30T08:38:20.166Z,29.23
2022-10-30T08:40:55.613Z,37.80
2022-10-30T08:43:25.160Z,30.65
2022-10-30T08:45:52.153Z,26.30
2022-10-30T08:48:21.028Z,23.27
2022-10-30T08:50:47.454Z,26.42
2022-10-30T08:53:20.410Z,16.88
2022-10-30T08:55:48.031Z,35.33
2022-10-30T08:58:31.189Z,17.02
2022-10-30T09:01:01.333Z,22.10
2022-10-30T09:03:47.793Z,11.82
2022-10-30T09:06:40.036Z,11.10
2022-10-30T09:09:35.644Z,14.75
2022-10-30T09:12:03.380Z,35.75
2022-10-30T09:14:35.128Z,30.30
2022-10-30T09:17:01.586Z,20.50
2022-10-30T09:19:29.213Z,23.88
2022-10-30T09:21:57.943Z,14.75
2022-10-30T09:24:24.455Z,19.05
2022-10-30T09:26:50.889Z,11.60
2022-10-30T09:29:22.757Z,12.50
2022-10-30T09:31:54.897Z,17.23
2022-10-30T09:34:23.985Z,12.95
2022-10-30T09:36:57.424Z,12.73
2022-10-30T09:39:25.325Z,20.92
2022-10-30T09:42:36.488Z,14.38
2022-10-30T09:45:37.733Z,13.35
2022-10-30T09:48:16.202Z,14.85
2022-10-30T09:51:21.263Z,17.92
2022-10-30T09:54:06.040Z,15.02
2022-10-30T09:56:45.173Z,13.63
2022-10-30T09:59:34.068Z,14.70
2022-10-30T10:02:20.238Z,14.07
2022-10-30T10:04:52.485Z,17.23
2022-10-30T10:08:07.867Z,16.15
2022-10-30T10:11:00.000Z,14.35
2022-10-30T10:13:41.142Z,20.10
2022-10-30T10:16:20.216Z,27.05
2022-10-30T10:19:21.062Z,22.58
2022-10-30T10:21:58.676Z,24.50
2022-10-30T10:24:28.782Z,19.55
2022-10-30T10:27:16.567Z,20.63
2022-10-30T10:30:14.672Z,21.20
2022-10-30T10:33:09.937Z,18.52
2022-10-30T10:35:44.307Z,22.10
2022-10-30T10:38:25.910Z,21.73
2022-10-30T10:41:14.284Z,21.80
2022-10-30T10:43:58.773Z,18.23
2022-10-30T10:47:01.768Z,16.55
2022-10-30T10:49:47.331Z,18.55
2022-10-30T10:54:47.664Z,19.70
2022-10-30T10:57:35.786Z,20.42
2022-10-30T11:00:13.242Z,21.55
2022-10-30T11:02:59.503Z,25.45
2022-10-30T11:05:33.534Z,25.75
2022-10-30T11:08:11.230Z,23.23
2022-10-30T11:10:37.803Z,19.33
2022-10-30T11:13:04.217Z,20.95
2022-10-30T11:15:51.549Z,20.23
2022-10-30T11:18:17.943Z,21.50
2022-10-30T11:21:09.621Z,17.75
2022-10-30T11:23:47.492Z,14.88
2022-10-30T11:26:23.018Z,21.77
2022-10-30T11:28:58.327Z,20.73
2022-10-30T11:31:24.763Z,20.20
2022-10-30T11:33:51.920Z,17.35
2022-10-30T11:36:23.358Z,16.95
2022-10-30T11:38:50.301Z,21.48
2022-10-30T11:41:18.158Z,18.30
2022-10-30T11:43:45.258Z,20.13
2022-10-30T11:46:21.056Z,17.92
2022-10-30T11:48:54.491Z,16.95
2022-10-30T11:51:35.100Z,16.10
2022-10-30T11:54:02.344Z,20.65
2022-10-30T11:56:35.396Z,18.85
2022-10-30T11:59:04.588Z,18.35
2022-10-30T12:01:36.022Z,16.67
2022-10-30T12:04:29.453Z,26.27
2022-10-30T12:07:14.426Z,33.15
2022-10-30T12:09:46.264Z,22.23
2022-10-30T12:12:42.206Z,25.17
2022-10-30T12:15:08.572Z,20.90
2022-10-30T12:17:35.189Z,19.77
2022-10-30T12:20:03.045Z,14.07
2022-10-30T12:22:32.736Z,22.25
2022-10-30T12:25:03.740Z,15.20
2022-10-30T12:27:34.360Z,17.05
2022-10-30T12:30:14.699Z,16.83
2022-10-30T12:32:50.312Z,17.33
2022-10-30T12:35:25.725Z,13.70
2022-10-30T12:37:54.231Z,21.88
2022-10-30T12:40:30.025Z,14.30
2022-10-30T12:43:19.468Z,11.80
2022-10-30T12:45:50.945Z,14.43
2022-10-30T12:48:41.213Z,11.88
2022-10-30T12:51:15.927Z,12.77
2022-10-30T12:53:58.394Z,14.27
2022-10-30T12:56:36.148Z,19.73
2022-10-30T12:59:17.650Z,17.77
2022-10-30T13:02:35.800Z,16.20
2022-10-30T13:05:07.079Z,14.85
2022-10-30T13:07:47.436Z,13.10
2022-10-30T13:10:32.062Z,11.83
2022-10-30T13:13:11.172Z,12.00
2022-10-30T13:15:44.545Z,13.25
2022-10-30T13:18:17.402Z,12.68
2022-10-30T13:20:55.877Z,12.98
2022-10-30T13:23:32.669Z,12.25
2022-10-30T13:26:02.272Z,11.40
2022-10-30T13:28:36.899Z,14.98
2022-10-30T13:31:30.593Z,13.30
2022-10-30T13:34:20.785Z,18.27
2022-10-30T13:36:55.499Z,17.48
2022-10-30T13:39:33.898Z,14.60
2022-10-30T13:42:20.560Z,14.55
2022-10-30T13:45:08.351Z,13.57
2022-10-30T13:47:52.867Z,13.43
2022-10-30T13:50:40.205Z,12.60
2022-10-30T13:53:15.333Z,12.23
2022-10-30T13:55:44.673Z,11.25
2022-10-30T13:58:17.255Z,12.88
2022-10-30T14:00:55.930Z,14.77
2022-10-30T14:03:50.420Z,12.15
2022-10-30T14:06:35.154Z,13.57
2022-10-30T14:09:28.595Z,14.60
2022-10-30T14:11:55.365Z,13.15
2022-10-30T14:14:33.001Z,12.50
2022-10-30T14:17:14.624Z,11.68
2022-10-30T14:20:21.706Z,11.82
2022-10-30T14:23:07.958Z,10.95
2022-10-30T14:25:34.808Z,15.55
2022-10-30T14:28:01.963Z,14.65
2022-10-30T14:30:29.210Z,11.80
2022-10-30T14:32:56.236Z,13.82
2022-10-30T14:35:32.915Z,13.85
2022-10-30T14:38:22.621Z,13.02
2022-10-30T14:41:08.414Z,15.05
2022-10-30T14:44:03.218Z,11.55
2022-10-30T14:46:45.410Z,10.07
2022-10-30T14:49:48.697Z,10.27
2022-10-30T14:52:39.985Z,9.70
2022-10-30T14:58:02.117Z,13.75
2022-10-30T15:00:37.604Z,8.52
2022-10-30T15:03:10.101Z,10.98
2022-10-30T15:05:39.665Z,11.48
2022-10-30T15:08:24.644Z,11.20
2022-10-30T15:11:07.836Z,6.40
2022-10-30T15:13:34.411Z,7.13
2022-10-30T15:16:07.977Z,10.52
2022-10-30T15:18:34.672Z,8.75
2022-10-30T15:21:06.564Z,9.50
2022-10-30T15:23:36.481Z,14.48
2022-10-30T15:26:09.860Z,18.83
2022-10-30T15:28:38.658Z,15.13
2022-10-30T15:31:05.286Z,12.07
2022-10-30T15:33:35.369Z,10.10
2022-10-30T15:36:01.916Z,11.00
2022-10-30T15:38:28.394Z,12.43
2022-10-30T15:41:01.028Z,9.27
2022-10-30T15:43:36.956Z,13.05
2022-10-30T15:46:10.048Z,8.88
2022-10-30T15:48:40.810Z,11.25
2022-10-30T15:51:15.234Z,11.35
2022-10-30T15:53:47.774Z,14.93
2022-10-30T15:56:33.654Z,16.67
2022-10-30T15:59:03.195Z,15.43
2022-10-30T16:01:38.412Z,14.45
2022-10-30T16:04:14.742Z,20.58
2022-10-30T16:06:49.064Z,14.75
2022-10-30T16:09:15.541Z,15.77
2022-10-30T16:11:42.282Z,18.20
2022-10-30T16:14:14.485Z,19.35
2022-10-30T16:16:41.368Z,15.73
2022-10-30T16:19:07.964Z,37.90
2022-10-30T16:21:35.112Z,110.95
2022-10-30T16:24:04.234Z,75.75
2022-10-30T16:26:36.759Z,49.42
2022-10-30T16:29:18.360Z,43.67
2022-10-30T16:31:49.727Z,19.48
2022-10-30T16:34:22.784Z,27.60
2022-10-30T16:36:50.280Z,21.70
2022-10-30T16:39:18.666Z,16.25
2022-10-30T16:41:45.271Z,21.48
2022-10-30T16:44:25.328Z,20.17
2022-10-30T16:46:54.984Z,22.17
2022-10-30T16:49:25.227Z,17.33
2022-10-30T16:51:57.929Z,15.77
2022-10-30T16:54:31.506Z,14.52
2022-10-30T16:57:01.728Z,19.70
2022-10-30T16:59:44.344Z,14.83
2022-10-30T17:02:20.634Z,20.20
2022-10-30T17:04:55.400Z,20.50
2022-10-30T17:07:26.374Z,27.30
2022-10-30T17:09:56.730Z,13.20
2022-10-30T17:12:25.454Z,16.52
2022-10-30T17:14:54.781Z,17.75
2022-10-30T17:17:25.198Z,16.38
2022-10-30T17:20:01.411Z,41.28
2022-10-30T17:22:28.853Z,25.25
2022-10-30T17:24:55.409Z,17.30
2022-10-30T17:27:40.920Z,21.20
2022-10-30T17:30:35.206Z,28.92
2022-10-30T17:33:04.213Z,27.85
2022-10-30T17:35:30.788Z,28.42
2022-10-30T17:37:59.819Z,36.50
2022-10-30T17:40:29.418Z,33.65
2022-10-30T17:42:55.812Z,20.98
2022-10-30T17:45:22.390Z,15.60
2022-10-30T17:47:48.795Z,24.33
2022-10-30T17:50:15.235Z,21.83
2022-10-30T17:52:41.649Z,21.90
2022-10-30T17:55:23.160Z,22.73
2022-10-30T17:57:49.620Z,20.73
2022-10-30T18:00:16.847Z,24.13
2022-10-30T18:02:43.291Z,17.83
2022-10-30T18:05:16.423Z,18.63
2022-10-30T18:07:43.342Z,21.65
2022-10-30T18:10:10.098Z,14.63
2022-10-30T18:12:36.542Z,20.50
2022-10-30T18:15:25.975Z,12.30
2022-10-30T18:17:52.405Z,16.05
2022-10-30T18:20:18.869Z,24.23
2022-10-30T18:22:45.322Z,23.90
2022-10-30T18:25:20.058Z,15.85
2022-10-30T18:27:46.602Z,18.23
2022-10-30T18:30:14.826Z,12.35
2022-10-30T18:32:42.969Z,11.98
2022-10-30T18:35:33.188Z,14.93
2022-10-30T18:37:59.791Z,21.73
2022-10-30T18:40:26.215Z,12.90
2022-10-30T18:42:52.575Z,13.35
2022-10-30T18:45:24.986Z,14.55
2022-10-30T18:47:52.646Z,22.92
2022-10-30T18:50:21.593Z,19.77
2022-10-30T18:52:48.686Z,18.92
2022-10-30T18:55:21.606Z,21.15
2022-10-30T18:57:49.594Z,21.65
2022-10-30T19:00:25.056Z,11.82
2022-10-30T19:02:52.695Z,16.65
2022-10-30T19:05:27.747Z,29.13
2022-10-30T19:07:54.758Z,13.90
2022-10-30T19:10:21.589Z,14.20
2022-10-30T19:13:11.041Z,12.18
2022-10-30T19:15:37.405Z,17.52
2022-10-30T19:18:05.218Z,11.38
2022-10-30T19:20:50.901Z,18.20
2022-10-30T19:23:21.765Z,13.52
2022-10-30T19:25:49.471Z,16.67
2022-10-30T19:28:18.336Z,13.85
2022-10-30T19:30:50.109Z,19.08
2022-10-30T19:33:18.136Z,12.95
2022-10-30T19:35:44.601Z,21.33
2022-10-30T19:38:12.338Z,30.02
2022-10-30T19:40:40.173Z,30.45
2022-10-30T19:43:07.063Z,32.92
2022-10-30T19:45:34.504Z,36.63
2022-10-30T19:48:06.427Z,40.40
2022-10-30T19:50:44.778Z,30.67
2022-10-30T19:53:12.744Z,25.95
2022-10-30T19:55:41.450Z,21.23
2022-10-30T19:58:12.856Z,18.98
2022-10-30T20:00:41.318Z,17.67
2022-10-30T20:03:07.870Z,16.60
2022-10-30T20:05:37.662Z,13.20
2022-10-30T20:08:06.095Z,22.83
2022-10-30T20:10:36.079Z,21.10
2022-10-30T20:13:04.088Z,27.60
2022-10-30T20:15:30.684Z,18.38
2022-10-30T20:17:58.383Z,16.55
2022-10-30T20:20:33.993Z,22.35
2022-10-30T20:23:00.528Z,24.55
2022-10-30T20:25:27.817Z,26.50
2022-10-30T20:28:06.620Z,19.58
2022-10-30T20:30:33.607Z,32.65
2022-10-30T20:33:00.385Z,29.90
2022-10-30T20:35:27.123Z,34.53
2022-10-30T20:38:03.458Z,27.23
2022-10-30T20:40:30.749Z,23.65
2022-10-30T20:43:02.660Z,20.23
2022-10-30T20:45:29.824Z,53.97
2022-10-30T20:47:56.364Z,126.95
2022-10-30T20:50:23.419Z,74.57
2022-10-30T20:52:49.879Z,38.47
2022-10-30T20:55:16.445Z,25.25
2022-10-30T20:57:43.084Z,31.58
2022-10-30T21:00:11.787Z,18.67
2022-10-30T21:02:38.429Z,18.05
2022-10-30T21:05:11.778Z,23.95
2022-10-30T21:07:50.096Z,16.23
2022-10-30T21:10:16.530Z,22.20
2022-10-30T21:12:42.982Z,27.95
2022-10-30T21:15:09.677Z,17.35
2022-10-30T21:17:36.164Z,16.13
2022-10-30T21:20:03.076Z,23.13
2022-10-30T21:22:29.478Z,20.17
2022-10-30T21:24:55.891Z,21.75
2022-10-30T21:27:22.666Z,16.67
2022-10-30T21:29:49.082Z,17.10
2022-10-30T21:32:15.566Z,82.18
2022-10-30T21:34:41.951Z,56.33
2022-10-30T21:37:08.370Z,28.90
2022-10-30T21:39:34.740Z,36.80
2022-10-30T21:42:01.123Z,54.10
2022-10-30T21:44:27.478Z,57.78
2022-10-30T21:46:53.918Z,26.45
2022-10-30T21:49:20.426Z,17.48
2022-10-30T21:51:49.542Z,27.17
2022-10-30T21:54:18.111Z,24.52
2022-10-30T21:56:44.894Z,19.35
2022-10-30T21:59:12.331Z,25.15
2022-10-30T22:01:40.975Z,20.88
2022-10-30T22:04:10.814Z,15.18
2022-10-30T22:06:41.998Z,15.45
2022-10-30T22:11:35.131Z,25.23
2022-10-30T22:14:03.756Z,17.52
2022-10-30T22:16:32.041Z,13.82
2022-10-30T22:18:59.196Z,30.85
2022-10-30T22:21:26.208Z,22.20
2022-10-30T22:23:52.671Z,16.63
2022-10-30T22:26:21.601Z,30.17
2022-10-30T22:28:55.399Z,72.57
2022-10-30T22:31:23.322Z,55.40
2022-10-30T22:33:50.430Z,33.35
2022-10-30T22:36:22.511Z,26.67
2022-10-30T22:38:57.729Z,68.65
2022-10-30T22:41:24.545Z,63.03
2022-10-30T22:43:52.467Z,67.30
2022-10-30T22:46:19.387Z,52.70
2022-10-30T22:48:45.988Z,58.22
2022-10-30T22:51:15.468Z,56.05
2022-10-30T22:53:43.535Z,22.85
2022-10-30T22:56:20.421Z,37.22
2022-10-30T22:58:48.459Z,17.50
2022-10-30T23:01:17.865Z,53.40
2022-10-30T23:03:45.319Z,24.45
2022-10-30T23:06:13.017Z,20.13
2022-10-30T23:08:39.797Z,21.10
2022-10-30T23:11:07.257Z,19.85
2022-10-30T23:13:34.832Z,28.50
2022-10-30T23:16:02.866Z,26.17
2022-10-30T23:18:29.849Z,12.18
2022-10-30T23:21:01.993Z,18.95
2022-10-30T23:23:28.432Z,17.88
2022-10-30T23:25:54.854Z,18.13
2022-10-30T23:28:21.253Z,20.63
2022-10-30T23:30:47.705Z,17.77
2022-10-30T23:33:14.082Z,15.73
2022-10-30T23:35:40.466Z,12.32
2022-10-30T23:38:06.873Z,18.45
2022-10-30T23:40:33.243Z,11.20
2022-10-30T23:43:00.139Z,24.55
2022-10-30T23:45:26.758Z,17.77
2022-10-30T23:47:53.195Z,14.93
2022-10-30T23:50:19.595Z,14.90
2022-10-30T23:52:45.986Z,19.60
2022-10-30T23:55:12.362Z,15.55
2022-10-30T23:57:38.738Z,23.58
